Ishino, Japan

12:55 PM JST on May 23, 2017 (GMT +0900)
Iwojima Aero | | Change Station

Elev 381 ft 24.78 °N, 141.32 °E | Updated 53 minutes ago

Rain
Rain
73 °F
Feels Like 73 °F
N
14
Wind Variable Wind from SSW

Today
High -- | Low -- °F
--% Chance of Precip.
Yesterday
High -- | Low -- °F
Precip. -- in
Pressure 29.80 in
Visibility -9999.0 miles
Clouds Few 200 ft
Mostly Cloudy 500 ft
Mostly Cloudy 1000 ft
Few 1000 ft
Dew Point 72 °F
Humidity 94%
Rainfall 0.00 in
Snow Depth Not available.
4:46 AM 6:16 PM
Waning Crescent, 10% visible
SPECI RJAW 230302Z 20012KT 3200 -SHRA BR FEW002 BKN005 BKN010 FEW010TCU 23/22 Q1009 RMK 2ST002 5ST005 7CU010 2TCU010 A2981 TCU 5KM NE MOV NE
Pressure 29.80 in
Visibility -9999.0 miles
Clouds Few 200 ft
Mostly Cloudy 500 ft
Mostly Cloudy 1000 ft
Few 1000 ft
Dew Point 72 °F
Humidity 94%
Rainfall 0.00 in
Snow Depth Not available.
4:46 AM 6:16 PM
Waning Crescent, 10% visible
SPECI RJAW 230302Z 20012KT 3200 -SHRA BR FEW002 BKN005 BKN010 FEW010TCU 23/22 Q1009 RMK 2ST002 5ST005 7CU010 2TCU010 A2981 TCU 5KM NE MOV NE

Get Severe Weather Alerts

Thanks for signing up!

Be on the lookout for a verification email in your inbox.

You'll start receiving the daily forecast at 6 AM.

×

10-Day Weather Forecast

No radar image for this location.
×

Almanac

Astronomy

May. 23, 2017 Rise Set
Actual Time
Civil Twilight
Nautical Twilight
Astronomical Twilight
Moon
Length of Visible Light
Length of Day
Tomorrow will be .
, % of the Moon is Illuminated

Today's Extremes

Country Highs Country Lows

Community

WunderPhotos

Category 6

Welcome to Category 6. This is the collective home for Weather Underground's featured writeups by Dr. Jeff Masters (right), Bob Henson (left), Chris Burt, and other regular contributors.

Nearby

Air Quality

  Air Quality AQ Index Pollutant
Not available.

Snow Depth

Station Depth Elevation

Earthquake Activity

City Distance Mag. Time & Date
Minimum magnitude displayed is 2.5.

Coastal Water Temperatures

Place Temperature

Stations

Nearby Weather Stations

Station Location Temp. Windchill Dew Point Humidity Wind Precip. Elev Updated Type